createdAt,value
2017-12-10T00:02:34.895Z,2.98
2017-12-10T00:17:34.110Z,2.71
2017-12-10T00:32:33.983Z,2.53
2017-12-10T00:47:34.919Z,2.37
2017-12-10T01:02:35.128Z,2.33
2017-12-10T01:17:34.529Z,2.27
2017-12-10T01:32:34.411Z,2.28
2017-12-10T01:47:36.408Z,2.32
2017-12-10T02:02:34.290Z,2.29
2017-12-10T02:17:34.252Z,2.26
2017-12-10T02:32:36.628Z,2.24
2017-12-10T02:47:36.571Z,2.01
2017-12-10T03:02:34.507Z,1.80
2017-12-10T03:17:37.465Z,1.57
2017-12-10T03:32:36.865Z,1.45
2017-12-10T03:47:34.784Z,1.29
2017-12-10T04:02:34.701Z,1.34
2017-12-10T04:17:35.058Z,1.46
2017-12-10T04:32:35.212Z,1.53
2017-12-10T04:47:36.964Z,1.55
2017-12-10T05:02:34.920Z,1.44
2017-12-10T05:17:37.279Z,1.46
2017-12-10T05:32:34.438Z,1.54
2017-12-10T05:47:38.143Z,1.61
2017-12-10T06:02:35.117Z,1.60
2017-12-10T06:17:34.549Z,1.73
2017-12-10T06:32:34.443Z,1.89
2017-12-10T06:47:34.415Z,1.92
2017-12-10T07:02:34.337Z,1.99
2017-12-10T07:17:34.695Z,4.60
2017-12-10T07:32:34.841Z,3.33
2017-12-10T07:47:34.624Z,2.86
2017-12-10T08:02:34.516Z,2.60
2017-12-10T08:17:34.867Z,2.63
2017-12-10T08:32:34.928Z,2.79
2017-12-10T08:47:34.840Z,3.03
2017-12-10T09:02:34.745Z,3.16
2017-12-10T09:17:35.151Z,3.33
2017-12-10T09:32:35.378Z,3.36
2017-12-10T09:47:36.009Z,3.80
2017-12-10T10:02:34.967Z,4.29
2017-12-10T10:17:34.381Z,3.71
2017-12-10T10:32:34.368Z,3.80
2017-12-10T10:47:34.306Z,5.60
2017-12-10T11:02:34.196Z,6.87
2017-12-10T11:47:35.448Z,7.06
2017-12-10T12:02:34.522Z,6.24
2017-12-10T12:17:36.779Z,5.47
2017-12-10T12:32:34.723Z,5.07
2017-12-10T12:47:35.240Z,4.78
2017-12-10T13:02:34.681Z,4.67
2017-12-10T13:17:34.999Z,4.53
2017-12-10T13:32:35.545Z,4.24
2017-12-10T13:47:34.966Z,3.04
2017-12-10T14:02:34.368Z,2.10
2017-12-10T14:17:34.311Z,1.82
2017-12-10T14:32:34.220Z,1.59
2017-12-10T14:47:34.168Z,1.17
2017-12-10T15:02:35.189Z,0.86
2017-12-10T15:17:34.347Z,0.37
2017-12-10T15:32:34.415Z,-0.04
2017-12-10T15:47:34.458Z,-0.22
2017-12-10T16:02:34.355Z,-0.41
2017-12-10T16:17:34.687Z,-0.56
2017-12-10T16:32:34.670Z,-0.60
2017-12-10T16:47:34.628Z,-0.68
2017-12-10T17:02:34.640Z,-0.65
2017-12-10T17:17:37.972Z,-0.64
2017-12-10T17:32:36.929Z,-0.61
2017-12-10T17:47:34.803Z,-0.47
2017-12-10T18:02:36.787Z,-0.28
2017-12-10T18:17:34.247Z,-0.11
2017-12-10T18:32:36.633Z,-0.04
2017-12-10T18:47:35.148Z,-0.07
2017-12-10T19:02:35.604Z,-0.43
2017-12-10T19:17:36.565Z,-0.55
2017-12-10T19:32:36.388Z,-0.51
2017-12-10T19:47:34.376Z,-0.52
2017-12-10T20:02:34.291Z,-0.55
2017-12-10T20:17:34.632Z,-0.73
2017-12-10T20:32:34.577Z,-0.72
2017-12-10T20:47:37.543Z,-0.84
2017-12-10T21:02:34.488Z,-1.10
2017-12-10T21:17:34.864Z,-1.04
2017-12-10T21:32:34.766Z,-0.89
2017-12-10T21:47:34.755Z,-0.82
2017-12-10T22:02:36.715Z,-0.67
2017-12-10T22:17:37.088Z,-0.65
2017-12-10T22:32:35.121Z,-0.62
2017-12-10T22:47:34.956Z,-0.66
2017-12-10T23:02:36.963Z,-0.73
2017-12-10T23:17:37.795Z,-0.73
2017-12-10T23:32:35.254Z,-0.65
2017-12-10T23:47:36.276Z,-0.59
